sensor_id;sensor_type;location;lat;lon;timestamp;P1;durP1;ratioP1;P2;durP2;ratioP2
55469;SDS011;41334;47.872;16.384;2022-08-19T00:02:35;10.57;;;2.50;;
55469;SDS011;41334;47.872;16.384;2022-08-19T00:05:37;7.72;;;2.20;;
55469;SDS011;41334;47.872;16.384;2022-08-19T00:08:39;10.13;;;2.05;;
55469;SDS011;41334;47.872;16.384;2022-08-19T00:11:43;6.35;;;2.20;;
55469;SDS011;41334;47.872;16.384;2022-08-19T00:14:47;11.38;;;2.80;;
55469;SDS011;41334;47.872;16.384;2022-08-19T00:17:49;7.00;;;1.98;;
55469;SDS011;41334;47.872;16.384;2022-08-19T00:20:51;6.15;;;1.98;;
55469;SDS011;41334;47.872;16.384;2022-08-19T00:23:53;8.55;;;2.40;;
55469;SDS011;41334;47.872;16.384;2022-08-19T00:26:59;6.82;;;2.20;;
55469;SDS011;41334;47.872;16.384;2022-08-19T00:30:22;10.75;;;2.10;;
55469;SDS011;41334;47.872;16.384;2022-08-19T00:33:25;9.10;;;2.08;;
55469;SDS011;41334;47.872;16.384;2022-08-19T00:36:31;4.18;;;1.90;;
55469;SDS011;41334;47.872;16.384;2022-08-19T00:39:34;8.85;;;2.15;;
55469;SDS011;41334;47.872;16.384;2022-08-19T00:42:36;7.28;;;1.70;;
55469;SDS011;41334;47.872;16.384;2022-08-19T00:45:39;6.30;;;2.00;;
55469;SDS011;41334;47.872;16.384;2022-08-19T00:48:44;7.55;;;1.83;;
55469;SDS011;41334;47.872;16.384;2022-08-19T00:51:48;7.90;;;2.00;;
55469;SDS011;41334;47.872;16.384;2022-08-19T00:54:52;15.52;;;2.08;;
55469;SDS011;41334;47.872;16.384;2022-08-19T00:57:56;14.27;;;2.13;;
55469;SDS011;41334;47.872;16.384;2022-08-19T01:01:03;5.63;;;2.00;;
55469;SDS011;41334;47.872;16.384;2022-08-19T01:04:05;7.75;;;1.73;;
55469;SDS011;41334;47.872;16.384;2022-08-19T01:07:07;8.30;;;2.10;;
55469;SDS011;41334;47.872;16.384;2022-08-19T01:10:16;9.40;;;1.95;;
55469;SDS011;41334;47.872;16.384;2022-08-19T01:13:22;11.23;;;2.23;;
55469;SDS011;41334;47.872;16.384;2022-08-19T01:16:27;12.25;;;2.13;;
55469;SDS011;41334;47.872;16.384;2022-08-19T01:19:35;8.02;;;2.10;;
55469;SDS011;41334;47.872;16.384;2022-08-19T01:22:46;11.50;;;2.30;;
55469;SDS011;41334;47.872;16.384;2022-08-19T01:25:52;9.10;;;1.60;;
55469;SDS011;41334;47.872;16.384;2022-08-19T01:28:56;8.63;;;2.10;;
55469;SDS011;41334;47.872;16.384;2022-08-19T01:32:01;6.90;;;1.92;;
55469;SDS011;41334;47.872;16.384;2022-08-19T01:35:03;8.10;;;1.95;;
55469;SDS011;41334;47.872;16.384;2022-08-19T01:38:06;9.02;;;1.90;;
55469;SDS011;41334;47.872;16.384;2022-08-19T01:41:12;5.82;;;1.95;;
55469;SDS011;41334;47.872;16.384;2022-08-19T01:44:14;7.22;;;1.98;;
55469;SDS011;41334;47.872;16.384;2022-08-19T01:47:19;13.30;;;2.00;;
55469;SDS011;41334;47.872;16.384;2022-08-19T01:50:21;6.60;;;1.70;;
55469;SDS011;41334;47.872;16.384;2022-08-19T01:53:24;5.97;;;1.83;;
55469;SDS011;41334;47.872;16.384;2022-08-19T01:56:34;12.60;;;1.92;;
55469;SDS011;41334;47.872;16.384;2022-08-19T01:59:36;6.85;;;1.98;;
55469;SDS011;41334;47.872;16.384;2022-08-19T02:02:38;7.55;;;1.80;;
55469;SDS011;41334;47.872;16.384;2022-08-19T02:05:44;5.30;;;1.80;;
55469;SDS011;41334;47.872;16.384;2022-08-19T02:08:47;6.80;;;2.65;;
55469;SDS011;41334;47.872;16.384;2022-08-19T02:11:51;9.82;;;2.00;;
55469;SDS011;41334;47.872;16.384;2022-08-19T02:14:53;9.35;;;1.95;;
55469;SDS011;41334;47.872;16.384;2022-08-19T02:17:54;9.95;;;2.00;;
55469;SDS011;41334;47.872;16.384;2022-08-19T02:20:56;8.73;;;2.17;;
55469;SDS011;41334;47.872;16.384;2022-08-19T02:23:58;11.07;;;2.50;;
55469;SDS011;41334;47.872;16.384;2022-08-19T02:27:00;6.88;;;2.08;;
55469;SDS011;41334;47.872;16.384;2022-08-19T02:30:03;8.32;;;2.10;;
55469;SDS011;41334;47.872;16.384;2022-08-19T02:33:06;11.07;;;2.95;;
55469;SDS011;41334;47.872;16.384;2022-08-19T02:36:08;5.95;;;1.85;;
55469;SDS011;41334;47.872;16.384;2022-08-19T02:39:11;8.90;;;2.15;;
55469;SDS011;41334;47.872;16.384;2022-08-19T02:42:13;10.20;;;2.00;;
55469;SDS011;41334;47.872;16.384;2022-08-19T02:45:15;6.88;;;2.20;;
55469;SDS011;41334;47.872;16.384;2022-08-19T02:48:20;8.10;;;2.60;;
55469;SDS011;41334;47.872;16.384;2022-08-19T02:51:24;10.02;;;2.03;;
55469;SDS011;41334;47.872;16.384;2022-08-19T02:54:28;6.75;;;2.25;;
55469;SDS011;41334;47.872;16.384;2022-08-19T02:57:30;8.45;;;2.30;;
55469;SDS011;41334;47.872;16.384;2022-08-19T03:00:33;8.43;;;2.33;;
55469;SDS011;41334;47.872;16.384;2022-08-19T03:03:42;9.25;;;2.53;;
55469;SDS011;41334;47.872;16.384;2022-08-19T03:06:44;10.07;;;2.28;;
55469;SDS011;41334;47.872;16.384;2022-08-19T03:09:47;9.35;;;2.20;;
55469;SDS011;41334;47.872;16.384;2022-08-19T03:12:49;14.48;;;2.17;;
55469;SDS011;41334;47.872;16.384;2022-08-19T03:15:51;6.40;;;2.00;;
55469;SDS011;41334;47.872;16.384;2022-08-19T03:18:53;7.45;;;1.98;;
55469;SDS011;41334;47.872;16.384;2022-08-19T03:21:57;12.30;;;2.67;;
55469;SDS011;41334;47.872;16.384;2022-08-19T03:24:59;7.75;;;1.88;;
55469;SDS011;41334;47.872;16.384;2022-08-19T03:28:01;5.28;;;1.58;;
55469;SDS011;41334;47.872;16.384;2022-08-19T03:31:05;11.35;;;2.00;;
55469;SDS011;41334;47.872;16.384;2022-08-19T03:34:31;13.98;;;2.30;;
55469;SDS011;41334;47.872;16.384;2022-08-19T03:37:35;9.25;;;2.08;;
55469;SDS011;41334;47.872;16.384;2022-08-19T03:40:41;7.45;;;2.20;;
55469;SDS011;41334;47.872;16.384;2022-08-19T03:43:44;8.32;;;1.83;;
55469;SDS011;41334;47.872;16.384;2022-08-19T03:46:49;5.25;;;1.70;;
55469;SDS011;41334;47.872;16.384;2022-08-19T03:49:56;9.85;;;1.98;;
55469;SDS011;41334;47.872;16.384;2022-08-19T03:52:58;4.78;;;1.73;;
55469;SDS011;41334;47.872;16.384;2022-08-19T03:56:00;9.82;;;2.15;;
55469;SDS011;41334;47.872;16.384;2022-08-19T03:59:03;6.05;;;2.22;;
55469;SDS011;41334;47.872;16.384;2022-08-19T04:02:08;7.60;;;2.10;;
55469;SDS011;41334;47.872;16.384;2022-08-19T04:05:12;7.72;;;2.22;;
55469;SDS011;41334;47.872;16.384;2022-08-19T04:08:15;4.95;;;2.03;;
55469;SDS011;41334;47.872;16.384;2022-08-19T04:11:21;10.13;;;2.50;;
55469;SDS011;41334;47.872;16.384;2022-08-19T04:14:44;15.20;;;2.40;;
55469;SDS011;41334;47.872;16.384;2022-08-19T04:17:46;5.63;;;2.03;;
55469;SDS011;41334;47.872;16.384;2022-08-19T04:20:47;13.07;;;2.35;;
55469;SDS011;41334;47.872;16.384;2022-08-19T04:23:50;8.45;;;1.90;;
55469;SDS011;41334;47.872;16.384;2022-08-19T04:26:52;5.65;;;1.77;;
55469;SDS011;41334;47.872;16.384;2022-08-19T04:29:54;16.00;;;1.98;;
55469;SDS011;41334;47.872;16.384;2022-08-19T04:32:56;5.05;;;1.73;;
55469;SDS011;41334;47.872;16.384;2022-08-19T04:35:58;5.10;;;1.60;;
55469;SDS011;41334;47.872;16.384;2022-08-19T04:39:01;8.55;;;1.92;;
55469;SDS011;41334;47.872;16.384;2022-08-19T04:42:06;7.63;;;2.05;;
55469;SDS011;41334;47.872;16.384;2022-08-19T04:45:31;7.97;;;2.08;;
55469;SDS011;41334;47.872;16.384;2022-08-19T04:48:44;14.15;;;3.53;;
55469;SDS011;41334;47.872;16.384;2022-08-19T04:51:51;13.27;;;2.65;;
55469;SDS011;41334;47.872;16.384;2022-08-19T04:54:55;7.13;;;1.92;;
55469;SDS011;41334;47.872;16.384;2022-08-19T04:57:57;16.63;;;1.85;;
55469;SDS011;41334;47.872;16.384;2022-08-19T05:01:00;10.05;;;2.03;;
55469;SDS011;41334;47.872;16.384;2022-08-19T05:04:03;10.73;;;2.20;;
55469;SDS011;41334;47.872;16.384;2022-08-19T05:07:07;11.33;;;1.97;;
55469;SDS011;41334;47.872;16.384;2022-08-19T05:10:09;13.48;;;2.17;;
55469;SDS011;41334;47.872;16.384;2022-08-19T05:13:11;13.25;;;2.08;;
55469;SDS011;41334;47.872;16.384;2022-08-19T05:16:13;7.70;;;2.20;;
55469;SDS011;41334;47.872;16.384;2022-08-19T05:19:17;6.18;;;1.70;;
55469;SDS011;41334;47.872;16.384;2022-08-19T05:22:37;8.35;;;1.75;;
55469;SDS011;41334;47.872;16.384;2022-08-19T05:25:39;16.60;;;2.42;;
55469;SDS011;41334;47.872;16.384;2022-08-19T05:28:41;3.60;;;1.60;;
55469;SDS011;41334;47.872;16.384;2022-08-19T05:31:43;11.23;;;1.85;;
55469;SDS011;41334;47.872;16.384;2022-08-19T05:34:46;8.73;;;1.98;;
55469;SDS011;41334;47.872;16.384;2022-08-19T05:37:48;8.25;;;1.73;;
55469;SDS011;41334;47.872;16.384;2022-08-19T05:40:57;4.80;;;1.50;;
55469;SDS011;41334;47.872;16.384;2022-08-19T05:44:01;6.32;;;1.73;;
55469;SDS011;41334;47.872;16.384;2022-08-19T05:47:05;3.83;;;1.48;;
55469;SDS011;41334;47.872;16.384;2022-08-19T05:50:09;10.15;;;2.35;;
55469;SDS011;41334;47.872;16.384;2022-08-19T05:53:12;6.00;;;1.90;;
55469;SDS011;41334;47.872;16.384;2022-08-19T05:56:16;8.90;;;2.30;;
55469;SDS011;41334;47.872;16.384;2022-08-19T05:59:19;7.43;;;1.90;;
55469;SDS011;41334;47.872;16.384;2022-08-19T06:02:28;7.13;;;1.98;;
55469;SDS011;41334;47.872;16.384;2022-08-19T06:05:32;10.82;;;2.03;;
55469;SDS011;41334;47.872;16.384;2022-08-19T06:08:47;7.97;;;1.98;;
55469;SDS011;41334;47.872;16.384;2022-08-19T06:11:53;9.85;;;1.83;;
55469;SDS011;41334;47.872;16.384;2022-08-19T06:14:56;9.05;;;2.08;;
55469;SDS011;41334;47.872;16.384;2022-08-19T06:18:02;10.18;;;2.30;;
55469;SDS011;41334;47.872;16.384;2022-08-19T06:21:04;4.32;;;1.88;;
55469;SDS011;41334;47.872;16.384;2022-08-19T06:24:07;7.95;;;2.17;;
55469;SDS011;41334;47.872;16.384;2022-08-19T06:27:11;11.85;;;3.38;;
55469;SDS011;41334;47.872;16.384;2022-08-19T06:30:12;10.52;;;2.17;;
55469;SDS011;41334;47.872;16.384;2022-08-19T06:33:15;9.73;;;2.40;;
55469;SDS011;41334;47.872;16.384;2022-08-19T06:36:26;6.13;;;2.50;;
55469;SDS011;41334;47.872;16.384;2022-08-19T06:39:34;13.02;;;2.80;;
55469;SDS011;41334;47.872;16.384;2022-08-19T06:42:39;9.57;;;2.95;;
55469;SDS011;41334;47.872;16.384;2022-08-19T06:45:55;10.20;;;2.83;;
55469;SDS011;41334;47.872;16.384;2022-08-19T06:48:59;7.32;;;2.53;;
55469;SDS011;41334;47.872;16.384;2022-08-19T06:52:02;6.38;;;2.55;;
55469;SDS011;41334;47.872;16.384;2022-08-19T06:55:05;11.82;;;2.80;;
55469;SDS011;41334;47.872;16.384;2022-08-19T06:58:07;10.30;;;2.63;;
55469;SDS011;41334;47.872;16.384;2022-08-19T07:01:10;9.18;;;2.78;;
55469;SDS011;41334;47.872;16.384;2022-08-19T07:04:12;13.63;;;2.65;;
55469;SDS011;41334;47.872;16.384;2022-08-19T07:07:16;8.65;;;2.75;;
55469;SDS011;41334;47.872;16.384;2022-08-19T07:10:21;11.00;;;2.80;;
55469;SDS011;41334;47.872;16.384;2022-08-19T07:13:26;9.43;;;2.67;;
55469;SDS011;41334;47.872;16.384;2022-08-19T07:16:28;9.43;;;2.42;;
55469;SDS011;41334;47.872;16.384;2022-08-19T07:19:30;11.85;;;2.53;;
55469;SDS011;41334;47.872;16.384;2022-08-19T07:22:33;15.70;;;3.00;;
55469;SDS011;41334;47.872;16.384;2022-08-19T07:25:36;16.38;;;2.83;;
55469;SDS011;41334;47.872;16.384;2022-08-19T07:28:41;9.18;;;2.90;;
55469;SDS011;41334;47.872;16.384;2022-08-19T07:31:53;8.75;;;2.40;;
55469;SDS011;41334;47.872;16.384;2022-08-19T07:35:01;8.88;;;2.80;;
55469;SDS011;41334;47.872;16.384;2022-08-19T07:38:04;10.50;;;3.00;;
55469;SDS011;41334;47.872;16.384;2022-08-19T07:41:06;14.52;;;3.17;;
55469;SDS011;41334;47.872;16.384;2022-08-19T07:44:10;6.95;;;3.00;;
55469;SDS011;41334;47.872;16.384;2022-08-19T07:47:13;6.25;;;3.38;;
55469;SDS011;41334;47.872;16.384;2022-08-19T07:50:37;12.40;;;3.17;;
55469;SDS011;41334;47.872;16.384;2022-08-19T07:53:39;13.93;;;2.88;;
55469;SDS011;41334;47.872;16.384;2022-08-19T07:56:41;6.63;;;3.35;;
55469;SDS011;41334;47.872;16.384;2022-08-19T07:59:42;12.32;;;3.10;;
55469;SDS011;41334;47.872;16.384;2022-08-19T08:02:44;9.68;;;3.20;;
55469;SDS011;41334;47.872;16.384;2022-08-19T08:05:47;6.57;;;2.50;;
55469;SDS011;41334;47.872;16.384;2022-08-19T08:09:35;6.25;;;3.25;;
55469;SDS011;41334;47.872;16.384;2022-08-19T08:12:39;10.23;;;2.85;;
55469;SDS011;41334;47.872;16.384;2022-08-19T08:15:42;13.85;;;2.78;;
55469;SDS011;41334;47.872;16.384;2022-08-19T08:18:45;10.88;;;2.92;;
55469;SDS011;41334;47.872;16.384;2022-08-19T08:21:54;10.60;;;3.33;;
55469;SDS011;41334;47.872;16.384;2022-08-19T08:25:00;8.55;;;2.70;;
55469;SDS011;41334;47.872;16.384;2022-08-19T08:28:07;10.20;;;3.22;;
55469;SDS011;41334;47.872;16.384;2022-08-19T08:31:17;8.45;;;2.75;;
55469;SDS011;41334;47.872;16.384;2022-08-19T08:34:20;5.65;;;2.75;;
55469;SDS011;41334;47.872;16.384;2022-08-19T08:37:22;10.25;;;2.80;;
55469;SDS011;41334;47.872;16.384;2022-08-19T08:40:28;8.70;;;3.00;;
55469;SDS011;41334;47.872;16.384;2022-08-19T08:43:56;4.18;;;2.72;;
55469;SDS011;41334;47.872;16.384;2022-08-19T08:47:03;9.20;;;3.00;;
55469;SDS011;41334;47.872;16.384;2022-08-19T08:50:13;8.18;;;2.70;;
55469;SDS011;41334;47.872;16.384;2022-08-19T08:53:20;8.02;;;3.00;;
55469;SDS011;41334;47.872;16.384;2022-08-19T08:56:32;8.23;;;3.08;;
55469;SDS011;41334;47.872;16.384;2022-08-19T08:59:35;9.07;;;2.83;;
55469;SDS011;41334;47.872;16.384;2022-08-19T09:02:40;7.18;;;3.63;;
55469;SDS011;41334;47.872;16.384;2022-08-19T09:06:03;7.53;;;3.42;;
55469;SDS011;41334;47.872;16.384;2022-08-19T09:09:20;7.35;;;3.08;;
55469;SDS011;41334;47.872;16.384;2022-08-19T09:12:38;7.75;;;3.00;;
55469;SDS011;41334;47.872;16.384;2022-08-19T09:16:00;18.17;;;3.03;;
55469;SDS011;41334;47.872;16.384;2022-08-19T09:19:08;9.40;;;2.70;;
55469;SDS011;41334;47.872;16.384;2022-08-19T09:22:12;8.73;;;3.05;;
55469;SDS011;41334;47.872;16.384;2022-08-19T09:25:26;9.82;;;2.70;;
55469;SDS011;41334;47.872;16.384;2022-08-19T09:28:30;7.95;;;2.60;;
55469;SDS011;41334;47.872;16.384;2022-08-19T09:31:32;7.80;;;2.88;;
55469;SDS011;41334;47.872;16.384;2022-08-19T09:34:34;16.10;;;3.22;;
55469;SDS011;41334;47.872;16.384;2022-08-19T09:37:38;7.88;;;2.70;;
55469;SDS011;41334;47.872;16.384;2022-08-19T09:40:40;5.95;;;3.30;;
55469;SDS011;41334;47.872;16.384;2022-08-19T09:43:44;7.43;;;2.70;;
55469;SDS011;41334;47.872;16.384;2022-08-19T09:46:48;11.05;;;3.42;;
55469;SDS011;41334;47.872;16.384;2022-08-19T09:49:50;8.40;;;2.45;;
55469;SDS011;41334;47.872;16.384;2022-08-19T09:52:52;13.18;;;2.40;;
55469;SDS011;41334;47.872;16.384;2022-08-19T09:55:58;5.90;;;2.30;;
55469;SDS011;41334;47.872;16.384;2022-08-19T09:59:00;6.82;;;2.53;;
55469;SDS011;41334;47.872;16.384;2022-08-19T10:02:03;14.70;;;2.90;;
55469;SDS011;41334;47.872;16.384;2022-08-19T10:05:11;7.05;;;3.05;;
55469;SDS011;41334;47.872;16.384;2022-08-19T10:08:42;11.93;;;2.65;;
55469;SDS011;41334;47.872;16.384;2022-08-19T10:11:50;11.50;;;2.85;;
55469;SDS011;41334;47.872;16.384;2022-08-19T10:14:55;11.10;;;4.05;;
55469;SDS011;41334;47.872;16.384;2022-08-19T10:17:57;6.15;;;2.60;;
55469;SDS011;41334;47.872;16.384;2022-08-19T10:21:02;13.48;;;2.70;;
55469;SDS011;41334;47.872;16.384;2022-08-19T10:24:25;15.05;;;3.88;;
55469;SDS011;41334;47.872;16.384;2022-08-19T10:27:29;11.07;;;3.70;;
55469;SDS011;41334;47.872;16.384;2022-08-19T10:30:33;13.57;;;3.40;;
55469;SDS011;41334;47.872;16.384;2022-08-19T10:33:36;6.85;;;2.97;;
55469;SDS011;41334;47.872;16.384;2022-08-19T10:36:55;8.70;;;3.03;;
55469;SDS011;41334;47.872;16.384;2022-08-19T10:40:03;8.80;;;2.70;;
55469;SDS011;41334;47.872;16.384;2022-08-19T10:43:08;7.90;;;3.20;;
55469;SDS011;41334;47.872;16.384;2022-08-19T10:46:13;7.70;;;3.38;;
55469;SDS011;41334;47.872;16.384;2022-08-19T10:49:17;11.75;;;3.28;;
55469;SDS011;41334;47.872;16.384;2022-08-19T10:52:20;9.32;;;3.17;;
55469;SDS011;41334;47.872;16.384;2022-08-19T10:55:39;10.98;;;2.92;;
55469;SDS011;41334;47.872;16.384;2022-08-19T10:58:59;10.13;;;2.90;;
55469;SDS011;41334;47.872;16.384;2022-08-19T11:02:10;9.02;;;3.10;;
55469;SDS011;41334;47.872;16.384;2022-08-19T11:05:14;13.98;;;3.53;;
55469;SDS011;41334;47.872;16.384;2022-08-19T11:08:16;8.52;;;3.03;;
55469;SDS011;41334;47.872;16.384;2022-08-19T11:11:24;10.63;;;2.90;;
55469;SDS011;41334;47.872;16.384;2022-08-19T11:14:26;7.32;;;2.85;;
55469;SDS011;41334;47.872;16.384;2022-08-19T11:17:32;12.70;;;2.78;;
55469;SDS011;41334;47.872;16.384;2022-08-19T11:20:34;9.63;;;2.83;;
55469;SDS011;41334;47.872;16.384;2022-08-19T11:23:36;10.63;;;2.58;;
55469;SDS011;41334;47.872;16.384;2022-08-19T11:26:39;12.52;;;2.75;;
55469;SDS011;41334;47.872;16.384;2022-08-19T11:29:42;8.83;;;2.73;;
55469;SDS011;41334;47.872;16.384;2022-08-19T11:32:44;9.05;;;2.50;;
55469;SDS011;41334;47.872;16.384;2022-08-19T11:35:49;12.45;;;2.92;;
55469;SDS011;41334;47.872;16.384;2022-08-19T11:38:52;9.90;;;3.08;;
55469;SDS011;41334;47.872;16.384;2022-08-19T11:41:54;11.77;;;2.95;;
55469;SDS011;41334;47.872;16.384;2022-08-19T11:44:57;7.85;;;2.65;;
55469;SDS011;41334;47.872;16.384;2022-08-19T11:47:58;10.50;;;2.80;;
55469;SDS011;41334;47.872;16.384;2022-08-19T11:51:02;11.93;;;2.80;;
55469;SDS011;41334;47.872;16.384;2022-08-19T11:54:11;11.43;;;2.97;;
55469;SDS011;41334;47.872;16.384;2022-08-19T11:57:14;9.05;;;2.80;;
55469;SDS011;41334;47.872;16.384;2022-08-19T12:00:18;12.65;;;2.90;;
55469;SDS011;41334;47.872;16.384;2022-08-19T12:03:20;17.45;;;2.60;;
55469;SDS011;41334;47.872;16.384;2022-08-19T12:06:23;16.58;;;3.95;;
55469;SDS011;41334;47.872;16.384;2022-08-19T12:09:29;7.50;;;2.85;;
55469;SDS011;41334;47.872;16.384;2022-08-19T12:12:33;8.43;;;2.72;;
55469;SDS011;41334;47.872;16.384;2022-08-19T12:15:36;11.20;;;2.40;;
55469;SDS011;41334;47.872;16.384;2022-08-19T12:18:39;6.18;;;3.10;;
55469;SDS011;41334;47.872;16.384;2022-08-19T12:21:44;9.23;;;3.75;;
55469;SDS011;41334;47.872;16.384;2022-08-19T12:24:46;6.70;;;2.72;;
55469;SDS011;41334;47.872;16.384;2022-08-19T12:27:49;9.25;;;3.00;;
55469;SDS011;41334;47.872;16.384;2022-08-19T12:30:58;12.35;;;3.13;;
55469;SDS011;41334;47.872;16.384;2022-08-19T12:34:00;11.77;;;3.22;;
55469;SDS011;41334;47.872;16.384;2022-08-19T12:37:03;15.20;;;3.30;;
55469;SDS011;41334;47.872;16.384;2022-08-19T12:40:06;12.30;;;2.85;;
55469;SDS011;41334;47.872;16.384;2022-08-19T12:43:09;12.55;;;3.25;;
55469;SDS011;41334;47.872;16.384;2022-08-19T12:46:12;16.27;;;3.03;;
55469;SDS011;41334;47.872;16.384;2022-08-19T12:49:17;14.32;;;2.70;;
55469;SDS011;41334;47.872;16.384;2022-08-19T12:52:39;11.50;;;2.47;;
55469;SDS011;41334;47.872;16.384;2022-08-19T12:55:43;11.10;;;2.47;;
55469;SDS011;41334;47.872;16.384;2022-08-19T12:58:45;15.57;;;2.97;;
55469;SDS011;41334;47.872;16.384;2022-08-19T13:01:49;8.95;;;2.75;;
55469;SDS011;41334;47.872;16.384;2022-08-19T13:04:51;12.23;;;3.13;;
55469;SDS011;41334;47.872;16.384;2022-08-19T13:07:53;14.07;;;2.60;;
55469;SDS011;41334;47.872;16.384;2022-08-19T13:11:06;13.55;;;2.70;;
55469;SDS011;41334;47.872;16.384;2022-08-19T13:14:13;5.22;;;2.10;;
55469;SDS011;41334;47.872;16.384;2022-08-19T13:17:15;14.35;;;3.25;;
55469;SDS011;41334;47.872;16.384;2022-08-19T13:20:18;10.35;;;2.10;;
55469;SDS011;41334;47.872;16.384;2022-08-19T13:23:20;7.95;;;2.58;;
55469;SDS011;41334;47.872;16.384;2022-08-19T13:26:23;11.15;;;3.22;;
55469;SDS011;41334;47.872;16.384;2022-08-19T13:29:25;10.57;;;2.42;;
55469;SDS011;41334;47.872;16.384;2022-08-19T13:32:45;8.77;;;2.40;;
55469;SDS011;41334;47.872;16.384;2022-08-19T13:36:05;6.68;;;2.10;;
55469;SDS011;41334;47.872;16.384;2022-08-19T13:39:09;10.23;;;2.90;;
55469;SDS011;41334;47.872;16.384;2022-08-19T13:42:11;4.55;;;1.67;;
55469;SDS011;41334;47.872;16.384;2022-08-19T13:45:16;7.90;;;2.03;;
55469;SDS011;41334;47.872;16.384;2022-08-19T13:48:21;9.25;;;2.00;;
55469;SDS011;41334;47.872;16.384;2022-08-19T13:51:23;8.23;;;1.70;;
55469;SDS011;41334;47.872;16.384;2022-08-19T13:54:25;10.93;;;2.28;;
55469;SDS011;41334;47.872;16.384;2022-08-19T13:57:28;8.93;;;2.45;;
55469;SDS011;41334;47.872;16.384;2022-08-19T14:00:32;7.25;;;2.10;;
55469;SDS011;41334;47.872;16.384;2022-08-19T14:03:36;8.15;;;2.00;;
55469;SDS011;41334;47.872;16.384;2022-08-19T14:06:39;6.43;;;1.80;;
55469;SDS011;41334;47.872;16.384;2022-08-19T14:09:41;10.05;;;2.20;;
55469;SDS011;41334;47.872;16.384;2022-08-19T14:12:43;6.63;;;2.20;;
55469;SDS011;41334;47.872;16.384;2022-08-19T14:15:45;8.25;;;1.88;;
55469;SDS011;41334;47.872;16.384;2022-08-19T14:18:48;7.15;;;2.28;;
55469;SDS011;41334;47.872;16.384;2022-08-19T14:21:50;9.77;;;1.90;;
55469;SDS011;41334;47.872;16.384;2022-08-19T14:24:52;6.93;;;2.08;;
55469;SDS011;41334;47.872;16.384;2022-08-19T14:27:54;7.20;;;1.83;;
55469;SDS011;41334;47.872;16.384;2022-08-19T14:30:57;9.48;;;1.90;;
55469;SDS011;41334;47.872;16.384;2022-08-19T14:33:58;8.80;;;1.75;;
55469;SDS011;41334;47.872;16.384;2022-08-19T14:37:00;9.40;;;2.08;;
55469;SDS011;41334;47.872;16.384;2022-08-19T14:40:03;10.30;;;1.85;;
55469;SDS011;41334;47.872;16.384;2022-08-19T14:43:05;7.95;;;1.50;;
55469;SDS011;41334;47.872;16.384;2022-08-19T14:46:07;9.20;;;1.52;;
55469;SDS011;41334;47.872;16.384;2022-08-19T14:49:11;9.40;;;1.80;;
55469;SDS011;41334;47.872;16.384;2022-08-19T14:52:13;9.52;;;2.00;;
55469;SDS011;41334;47.872;16.384;2022-08-19T14:55:16;6.65;;;1.73;;
55469;SDS011;41334;47.872;16.384;2022-08-19T14:58:19;8.07;;;1.50;;
55469;SDS011;41334;47.872;16.384;2022-08-19T15:01:30;5.82;;;1.63;;
55469;SDS011;41334;47.872;16.384;2022-08-19T15:04:32;7.18;;;2.90;;
55469;SDS011;41334;47.872;16.384;2022-08-19T15:07:34;5.40;;;1.48;;
55469;SDS011;41334;47.872;16.384;2022-08-19T15:10:38;7.00;;;1.80;;
55469;SDS011;41334;47.872;16.384;2022-08-19T15:13:40;9.23;;;1.80;;
55469;SDS011;41334;47.872;16.384;2022-08-19T15:16:43;6.75;;;2.47;;
55469;SDS011;41334;47.872;16.384;2022-08-19T15:19:44;6.65;;;1.55;;
55469;SDS011;41334;47.872;16.384;2022-08-19T15:22:47;5.03;;;1.50;;
55469;SDS011;41334;47.872;16.384;2022-08-19T15:25:49;3.15;;;1.20;;
55469;SDS011;41334;47.872;16.384;2022-08-19T15:28:57;7.50;;;1.42;;
55469;SDS011;41334;47.872;16.384;2022-08-19T15:32:00;6.32;;;1.92;;
55469;SDS011;41334;47.872;16.384;2022-08-19T15:35:02;12.48;;;2.28;;
55469;SDS011;41334;47.872;16.384;2022-08-19T15:38:06;7.65;;;1.73;;
55469;SDS011;41334;47.872;16.384;2022-08-19T15:41:19;11.95;;;2.38;;
55469;SDS011;41334;47.872;16.384;2022-08-19T15:44:25;8.48;;;1.85;;
55469;SDS011;41334;47.872;16.384;2022-08-19T15:47:28;8.80;;;1.80;;
55469;SDS011;41334;47.872;16.384;2022-08-19T15:50:35;8.85;;;1.88;;
55469;SDS011;41334;47.872;16.384;2022-08-19T15:53:38;6.38;;;1.60;;
55469;SDS011;41334;47.872;16.384;2022-08-19T15:56:41;8.00;;;1.50;;
55469;SDS011;41334;47.872;16.384;2022-08-19T16:00:01;13.15;;;1.50;;
55469;SDS011;41334;47.872;16.384;2022-08-19T16:03:27;5.80;;;1.77;;
55469;SDS011;41334;47.872;16.384;2022-08-19T16:06:49;5.15;;;1.35;;
55469;SDS011;41334;47.872;16.384;2022-08-19T16:12:55;11.57;;;1.70;;
55469;SDS011;41334;47.872;16.384;2022-08-19T16:15:58;9.02;;;1.63;;
55469;SDS011;41334;47.872;16.384;2022-08-19T16:19:01;8.55;;;1.80;;
55469;SDS011;41334;47.872;16.384;2022-08-19T16:22:12;10.18;;;2.35;;
55469;SDS011;41334;47.872;16.384;2022-08-19T16:25:14;9.45;;;1.92;;
55469;SDS011;41334;47.872;16.384;2022-08-19T16:28:16;9.70;;;1.80;;
55469;SDS011;41334;47.872;16.384;2022-08-19T16:31:18;11.13;;;2.22;;
55469;SDS011;41334;47.872;16.384;2022-08-19T16:34:19;10.23;;;1.65;;
55469;SDS011;41334;47.872;16.384;2022-08-19T16:37:22;13.85;;;1.95;;
55469;SDS011;41334;47.872;16.384;2022-08-19T16:40:24;10.38;;;2.30;;
55469;SDS011;41334;47.872;16.384;2022-08-19T16:43:26;5.78;;;1.42;;
55469;SDS011;41334;47.872;16.384;2022-08-19T16:46:29;9.93;;;1.88;;
55469;SDS011;41334;47.872;16.384;2022-08-19T16:49:33;11.52;;;2.13;;
55469;SDS011;41334;47.872;16.384;2022-08-19T16:52:55;8.63;;;1.75;;
55469;SDS011;41334;47.872;16.384;2022-08-19T16:55:59;11.57;;;1.75;;
55469;SDS011;41334;47.872;16.384;2022-08-19T16:59:02;9.77;;;1.92;;
55469;SDS011;41334;47.872;16.384;2022-08-19T17:02:04;7.70;;;1.52;;
55469;SDS011;41334;47.872;16.384;2022-08-19T17:05:07;9.18;;;2.35;;
55469;SDS011;41334;47.872;16.384;2022-08-19T17:08:11;9.80;;;1.80;;
55469;SDS011;41334;47.872;16.384;2022-08-19T17:11:14;7.30;;;2.33;;
55469;SDS011;41334;47.872;16.384;2022-08-19T17:14:19;12.05;;;1.75;;
55469;SDS011;41334;47.872;16.384;2022-08-19T17:17:22;9.77;;;1.95;;
55469;SDS011;41334;47.872;16.384;2022-08-19T17:20:29;7.80;;;1.90;;
55469;SDS011;41334;47.872;16.384;2022-08-19T17:23:31;9.05;;;1.67;;
55469;SDS011;41334;47.872;16.384;2022-08-19T17:26:44;14.82;;;2.03;;
55469;SDS011;41334;47.872;16.384;2022-08-19T17:29:46;7.60;;;1.77;;
55469;SDS011;41334;47.872;16.384;2022-08-19T17:32:48;9.40;;;1.88;;
55469;SDS011;41334;47.872;16.384;2022-08-19T17:35:50;10.18;;;2.17;;
55469;SDS011;41334;47.872;16.384;2022-08-19T17:38:55;9.60;;;1.80;;
55469;SDS011;41334;47.872;16.384;2022-08-19T17:41:58;6.97;;;2.17;;
55469;SDS011;41334;47.872;16.384;2022-08-19T17:45:03;11.25;;;1.70;;
55469;SDS011;41334;47.872;16.384;2022-08-19T17:48:06;9.70;;;2.10;;
55469;SDS011;41334;47.872;16.384;2022-08-19T17:51:14;10.23;;;2.20;;
55469;SDS011;41334;47.872;16.384;2022-08-19T17:54:36;7.22;;;1.48;;
55469;SDS011;41334;47.872;16.384;2022-08-19T17:57:37;11.55;;;2.33;;
55469;SDS011;41334;47.872;16.384;2022-08-19T18:00:43;5.80;;;1.92;;
55469;SDS011;41334;47.872;16.384;2022-08-19T18:03:54;10.55;;;2.13;;
55469;SDS011;41334;47.872;16.384;2022-08-19T18:06:56;10.07;;;2.17;;
55469;SDS011;41334;47.872;16.384;2022-08-19T18:09:58;11.27;;;2.33;;
55469;SDS011;41334;47.872;16.384;2022-08-19T18:13:02;7.53;;;1.63;;
55469;SDS011;41334;47.872;16.384;2022-08-19T18:16:18;6.07;;;1.50;;
55469;SDS011;41334;47.872;16.384;2022-08-19T18:19:22;5.88;;;1.80;;